createdAt,value
2023-03-18T00:01:10.060Z,99750.00
2023-03-18T00:03:38.707Z,99763.00
2023-03-18T00:06:21.442Z,99765.00
2023-03-18T00:08:51.057Z,99759.00
2023-03-18T00:11:21.837Z,99770.00
2023-03-18T00:13:50.427Z,99768.00
2023-03-18T00:16:18.699Z,99766.00
2023-03-18T00:18:47.670Z,99766.00
2023-03-18T00:21:17.137Z,99764.00
2023-03-18T00:23:45.392Z,99761.00
2023-03-18T00:26:13.405Z,99761.00
2023-03-18T00:28:42.962Z,99769.00
2023-03-18T00:31:14.008Z,99776.00
2023-03-18T00:33:45.953Z,99766.00
2023-03-18T00:36:16.975Z,99771.00
2023-03-18T00:38:46.386Z,99768.00
2023-03-18T00:41:16.383Z,99769.00
2023-03-18T00:43:49.918Z,99773.00
2023-03-18T00:46:20.619Z,99765.00
2023-03-18T00:48:49.045Z,99765.00
2023-03-18T00:51:18.331Z,99756.00
2023-03-18T00:53:48.880Z,99769.00
2023-03-18T00:56:21.155Z,99778.00
2023-03-18T00:58:51.294Z,99777.00
2023-03-18T01:01:20.484Z,99770.00
2023-03-18T01:03:52.436Z,99765.00
2023-03-18T01:06:26.057Z,99767.00
2023-03-18T01:08:54.147Z,99774.00
2023-03-18T01:11:23.275Z,99771.00
2023-03-18T01:13:53.266Z,99770.00
2023-03-18T01:16:23.901Z,99767.00
2023-03-18T01:18:52.619Z,99773.00
2023-03-18T01:21:21.438Z,99774.00
2023-03-18T01:23:54.758Z,99777.00
2023-03-18T01:26:23.308Z,99778.00
2023-03-18T01:28:52.061Z,99780.00
2023-03-18T01:31:20.292Z,99780.00
2023-03-18T01:33:50.353Z,99783.00
2023-03-18T01:36:18.816Z,99786.00
2023-03-18T01:38:59.973Z,99780.00
2023-03-18T01:41:29.076Z,99788.00
2023-03-18T01:43:57.358Z,99785.00
2023-03-18T01:46:45.132Z,99785.00
2023-03-18T01:49:29.413Z,99787.00
2023-03-18T01:52:20.130Z,99789.00
2023-03-18T01:54:59.268Z,99795.00
2023-03-18T01:57:28.509Z,99785.00
2023-03-18T02:00:00.517Z,99791.00
2023-03-18T04:49:45.246Z,99869.00
2023-03-18T04:52:16.619Z,99872.00
2023-03-18T04:54:46.033Z,99871.00
2023-03-18T04:57:14.396Z,99879.00
2023-03-18T04:59:49.280Z,99881.00
2023-03-18T05:03:09.854Z,99878.00
2023-03-18T05:05:38.795Z,99871.00
2023-03-18T05:08:10.540Z,99871.00
2023-03-18T05:10:39.917Z,99877.00
2023-03-18T05:13:09.772Z,99880.00
2023-03-18T05:15:38.666Z,99872.00
2023-03-18T05:18:06.872Z,99872.00
2023-03-18T05:20:36.247Z,99874.00
2023-03-18T05:23:06.153Z,99873.00
2023-03-18T05:25:50.960Z,99870.00
2023-03-18T05:28:21.657Z,99870.00
2023-03-18T05:31:08.265Z,99882.00
2023-03-18T05:33:43.019Z,99875.00
2023-03-18T05:36:14.702Z,99879.00
2023-03-18T05:38:54.201Z,99875.00
2023-03-18T05:41:22.356Z,99872.00
2023-03-18T05:43:50.382Z,99870.00
2023-03-18T05:46:18.695Z,99869.00
2023-03-18T05:49:09.205Z,99888.00
2023-03-18T05:52:03.612Z,99888.00
2023-03-18T05:54:38.986Z,99893.00
2023-03-18T05:57:07.487Z,99886.00
2023-03-18T05:59:35.384Z,99882.00
2023-03-18T06:02:03.881Z,99885.00
2023-03-18T06:04:32.588Z,99885.00
2023-03-18T06:07:01.405Z,99890.00
2023-03-18T06:09:29.552Z,99881.00
2023-03-18T06:11:58.770Z,99883.00
2023-03-18T06:14:30.166Z,99888.00
2023-03-18T06:17:01.526Z,99882.00
2023-03-18T06:19:31.368Z,99887.00
2023-03-18T06:21:59.513Z,99889.00
2023-03-18T06:24:27.534Z,99892.00
2023-03-18T06:26:57.499Z,99890.00
2023-03-18T06:29:25.599Z,99888.00
2023-03-18T06:31:59.977Z,99901.00
2023-03-18T06:34:29.264Z,99897.00
2023-03-18T06:36:57.513Z,99896.00
2023-03-18T06:39:26.412Z,99904.00
2023-03-18T06:41:55.205Z,99908.00
2023-03-18T06:44:31.265Z,99907.00
2023-03-18T06:47:06.657Z,99907.00
2023-03-18T06:49:38.220Z,99913.00
2023-03-18T06:52:20.975Z,99919.00
2023-03-18T06:54:52.130Z,99912.00
2023-03-18T06:57:20.764Z,99913.00
2023-03-18T06:59:51.008Z,99914.00
2023-03-18T07:02:19.160Z,99916.00
2023-03-18T07:04:47.385Z,99924.00
2023-03-18T07:07:15.408Z,99925.00
2023-03-18T07:09:45.161Z,99930.00
2023-03-18T07:12:14.563Z,99936.00
2023-03-18T07:14:43.586Z,99945.00
2023-03-18T07:17:12.538Z,99941.00
2023-03-18T07:19:41.993Z,99948.00
2023-03-18T07:22:10.483Z,99955.00
2023-03-18T07:24:38.690Z,99952.00
2023-03-18T07:27:10.359Z,99947.00
2023-03-18T07:29:41.340Z,99946.00
2023-03-18T07:32:11.944Z,99949.00
2023-03-18T07:34:39.892Z,99950.00
2023-03-18T07:37:07.952Z,99953.00
2023-03-18T07:39:35.951Z,99965.00
2023-03-18T07:42:03.822Z,99971.00
2023-03-18T07:44:31.999Z,99966.00
2023-03-18T07:46:59.833Z,99959.00
2023-03-18T07:49:28.072Z,99969.00
2023-03-18T07:51:56.734Z,99963.00
2023-03-18T07:54:25.130Z,99982.00
2023-03-18T07:56:53.603Z,99981.00
2023-03-18T07:59:21.574Z,99978.00
2023-03-18T08:01:49.581Z,99989.00
2023-03-18T08:04:18.249Z,99995.00
2023-03-18T08:06:46.293Z,99995.00
2023-03-18T08:09:14.120Z,99995.00
2023-03-18T08:11:42.666Z,99990.00
2023-03-18T08:14:14.065Z,99998.00
2023-03-18T08:16:41.759Z,100000.00
2023-03-18T08:19:09.932Z,100007.00
2023-03-18T08:21:38.309Z,100011.00
2023-03-18T08:24:06.578Z,100015.00
2023-03-18T08:26:34.503Z,100021.00
2023-03-18T08:29:02.465Z,100024.00
2023-03-18T08:31:30.559Z,100008.00
2023-03-18T08:33:59.706Z,100023.00
2023-03-18T08:36:28.873Z,100020.00
2023-03-18T08:38:56.831Z,100023.00
2023-03-18T08:41:26.278Z,100024.00
2023-03-18T08:43:55.582Z,100026.00
2023-03-18T08:46:23.886Z,100030.00
2023-03-18T08:48:52.211Z,100031.00
2023-03-18T08:51:20.220Z,100033.00
2023-03-18T08:53:49.712Z,100038.00
2023-03-18T08:56:17.483Z,100037.00
2023-03-18T08:58:46.193Z,100037.00
2023-03-18T09:01:14.328Z,100037.00
2023-03-18T09:03:42.793Z,100038.00
2023-03-18T09:06:11.143Z,100043.00
2023-03-18T09:08:39.853Z,100038.00
2023-03-18T09:11:07.926Z,100041.00
2023-03-18T09:13:38.105Z,100029.00
2023-03-18T09:16:07.509Z,100046.00
2023-03-18T09:18:35.642Z,100039.00
2023-03-18T09:21:05.083Z,100038.00
2023-03-18T09:23:34.638Z,100063.00
2023-03-18T09:26:02.874Z,100046.00
2023-03-18T09:28:31.543Z,100033.00
2023-03-18T09:30:59.404Z,100037.00
2023-03-18T09:33:27.402Z,100038.00
2023-03-18T09:35:55.681Z,100038.00
2023-03-18T09:38:24.084Z,100045.00
2023-03-18T09:41:21.487Z,100048.00
2023-03-18T09:43:57.508Z,100046.00
2023-03-18T09:46:45.671Z,100054.00
2023-03-18T09:49:29.488Z,100054.00
2023-03-18T09:52:09.146Z,100066.00
2023-03-18T09:55:22.772Z,100059.00
2023-03-18T09:57:52.933Z,100058.00
2023-03-18T10:00:30.185Z,100057.00
2023-03-18T10:02:59.160Z,100074.00
2023-03-18T10:05:33.020Z,100070.00
2023-03-18T10:08:18.748Z,100061.00
2023-03-18T10:10:47.587Z,100081.00
2023-03-18T10:13:34.298Z,100073.00
2023-03-18T10:16:05.040Z,100085.00
2023-03-18T10:18:34.582Z,100090.00
2023-03-18T10:21:05.492Z,100085.00
2023-03-18T10:24:05.564Z,100082.00
2023-03-18T10:26:43.787Z,100089.00
2023-03-18T10:29:43.065Z,100092.00
2023-03-18T10:32:46.529Z,100089.00
2023-03-18T10:35:23.024Z,100088.00
2023-03-18T10:38:05.127Z,100084.00
2023-03-18T10:40:38.122Z,100086.00
2023-03-18T10:43:15.256Z,100083.00
2023-03-18T10:45:44.491Z,100092.00
2023-03-18T10:48:28.586Z,100087.00
2023-03-18T10:51:29.696Z,100093.00
2023-03-18T10:54:18.478Z,100091.00
2023-03-18T10:56:46.445Z,100091.00
2023-03-18T10:59:18.891Z,100100.00
2023-03-18T11:01:50.074Z,100113.00
2023-03-18T11:04:21.761Z,100107.00
2023-03-18T11:07:01.809Z,100110.00
2023-03-18T11:09:36.535Z,100107.00
2023-03-18T11:12:07.108Z,100110.00
2023-03-18T11:14:37.829Z,100104.00
2023-03-18T11:17:06.802Z,100105.00
2023-03-18T11:19:39.583Z,100114.00
2023-03-18T11:22:10.652Z,100105.00
2023-03-18T11:24:42.952Z,100107.00
2023-03-18T11:27:17.146Z,100118.00
2023-03-18T11:29:58.281Z,100105.00
2023-03-18T11:32:32.014Z,100119.00
2023-03-18T11:35:01.999Z,100107.00
2023-03-18T11:37:35.089Z,100104.00
2023-03-18T11:40:15.625Z,100108.00
2023-03-18T11:42:43.486Z,100111.00
2023-03-18T11:45:26.634Z,100127.00
2023-03-18T11:47:54.802Z,100105.00
2023-03-18T11:50:31.480Z,100118.00
2023-03-18T11:53:29.445Z,100120.00
2023-03-18T11:56:25.771Z,100114.00
2023-03-18T11:59:32.408Z,100122.00
2023-03-18T12:02:34.529Z,100124.00
2023-03-18T12:05:23.013Z,100130.00
2023-03-18T12:08:18.214Z,100111.00
2023-03-18T12:10:48.874Z,100110.00
2023-03-18T12:13:22.727Z,100124.00
2023-03-18T12:15:54.913Z,100112.00
2023-03-18T12:18:51.889Z,100110.00
2023-03-18T12:21:46.210Z,100106.00
2023-03-18T12:25:07.455Z,100109.00
2023-03-18T12:27:44.507Z,100111.00
2023-03-18T12:30:37.000Z,100105.00
2023-03-18T12:33:41.102Z,100110.00
2023-03-18T12:36:30.410Z,100113.00
2023-03-18T12:39:14.826Z,100105.00
2023-03-18T12:41:57.943Z,100114.00
2023-03-18T12:44:45.386Z,100115.00
2023-03-18T12:47:48.479Z,100116.00
2023-03-18T12:50:23.531Z,100110.00
2023-03-18T12:52:57.974Z,100113.00
2023-03-18T12:55:31.859Z,100106.00
2023-03-18T12:58:15.620Z,100103.00
2023-03-18T13:00:57.403Z,100104.00
2023-03-18T13:03:38.022Z,100100.00
2023-03-18T13:06:23.322Z,100112.00
2023-03-18T13:09:25.685Z,100104.00
2023-03-18T13:12:13.560Z,100109.00
2023-03-18T13:15:02.054Z,100099.00
2023-03-18T13:17:34.355Z,100106.00
2023-03-18T13:20:04.887Z,100101.00
2023-03-18T13:22:47.768Z,100097.00
2023-03-18T13:25:37.380Z,100096.00
2023-03-18T13:28:42.257Z,100102.00
2023-03-18T13:31:31.590Z,100102.00
2023-03-18T13:34:05.456Z,100098.00
2023-03-18T13:37:05.339Z,100105.00
2023-03-18T13:39:57.418Z,100093.00
2023-03-18T13:42:31.475Z,100099.00
2023-03-18T13:45:06.008Z,100100.00
2023-03-18T13:47:38.295Z,100097.00
2023-03-18T13:50:29.524Z,100093.00
2023-03-18T13:52:59.894Z,100104.00
2023-03-18T13:55:30.790Z,100098.00
2023-03-18T13:58:14.200Z,100102.00
2023-03-18T14:00:46.718Z,100097.00
2023-03-18T14:03:25.254Z,100099.00
2023-03-18T14:06:16.228Z,100098.00
2023-03-18T14:08:45.243Z,100093.00
2023-03-18T14:11:26.630Z,100093.00
2023-03-18T14:13:57.536Z,100091.00
2023-03-18T14:16:30.095Z,100094.00
2023-03-18T14:19:19.328Z,100091.00
2023-03-18T14:22:08.330Z,100092.00
2023-03-18T14:24:37.009Z,100088.00
2023-03-18T14:27:05.002Z,100086.00
2023-03-18T14:29:40.187Z,100089.00
2023-03-18T14:32:34.297Z,100085.00
2023-03-18T14:35:17.443Z,100093.00
2023-03-18T14:38:10.549Z,100096.00
2023-03-18T14:40:48.036Z,100104.00
2023-03-18T14:43:40.739Z,100090.00
2023-03-18T14:46:17.902Z,100090.00
2023-03-18T14:48:47.652Z,100085.00
2023-03-18T14:51:21.268Z,100091.00
2023-03-18T14:54:14.542Z,100086.00
2023-03-18T14:56:54.177Z,100083.00
2023-03-18T14:59:25.721Z,100094.00
2023-03-18T15:01:55.664Z,100083.00
2023-03-18T15:04:28.275Z,100089.00
2023-03-18T15:06:59.424Z,100085.00
2023-03-18T15:09:30.105Z,100085.00
2023-03-18T15:11:58.092Z,100086.00
2023-03-18T15:14:30.180Z,100081.00
2023-03-18T15:17:01.752Z,100079.00
2023-03-18T15:19:31.258Z,100076.00
2023-03-18T15:22:04.754Z,100081.00
2023-03-18T15:24:33.044Z,100074.00
2023-03-18T15:27:13.810Z,100067.00
2023-03-18T15:29:53.842Z,100076.00
2023-03-18T15:32:29.506Z,100073.00
2023-03-18T15:35:15.661Z,100070.00
2023-03-18T15:37:46.086Z,100075.00
2023-03-18T15:40:26.402Z,100077.00
2023-03-18T15:43:06.621Z,100077.00
2023-03-18T15:45:36.161Z,100066.00
2023-03-18T15:48:13.793Z,100070.00
2023-03-18T15:50:53.777Z,100069.00
2023-03-18T15:53:27.466Z,100070.00
2023-03-18T15:55:59.832Z,100075.00
2023-03-18T15:58:38.716Z,100076.00
2023-03-18T16:01:08.477Z,100064.00
2023-03-18T16:03:43.387Z,100073.00
2023-03-18T16:06:11.964Z,100074.00
2023-03-18T16:08:40.084Z,100077.00
2023-03-18T16:11:09.600Z,100069.00
2023-03-18T16:13:38.188Z,100073.00
2023-03-18T16:16:06.620Z,100076.00
2023-03-18T16:18:35.229Z,100080.00
2023-03-18T16:21:03.383Z,100079.00
2023-03-18T16:23:31.811Z,100078.00
2023-03-18T16:25:59.909Z,100083.00
2023-03-18T16:28:28.933Z,100078.00
2023-03-18T16:30:58.237Z,100073.00
2023-03-18T16:33:26.334Z,100080.00
2023-03-18T16:36:20.166Z,100078.00
2023-03-18T16:38:48.326Z,100087.00
2023-03-18T16:41:18.314Z,100088.00
2023-03-18T16:43:46.393Z,100083.00
2023-03-18T16:46:15.384Z,100083.00
2023-03-18T16:48:43.855Z,100089.00
2023-03-18T16:51:15.003Z,100087.00
2023-03-18T16:53:42.978Z,100085.00
2023-03-18T16:56:17.304Z,100078.00
2023-03-18T16:58:45.643Z,100088.00
2023-03-18T17:01:19.666Z,100092.00
2023-03-18T17:03:48.362Z,100092.00
2023-03-18T17:06:16.538Z,100097.00
2023-03-18T17:08:45.844Z,100101.00
2023-03-18T17:11:18.683Z,100101.00
2023-03-18T17:13:47.564Z,100100.00
2023-03-18T17:16:22.834Z,100111.00
2023-03-18T17:18:50.649Z,100110.00
2023-03-18T17:21:18.426Z,100113.00
2023-03-18T17:23:47.872Z,100116.00
2023-03-18T17:26:15.884Z,100116.00
2023-03-18T17:28:46.269Z,100110.00
2023-03-18T17:31:14.692Z,100112.00
2023-03-18T17:33:43.411Z,100109.00
2023-03-18T17:36:11.249Z,100111.00
2023-03-18T17:38:39.116Z,100107.00
2023-03-18T17:41:19.950Z,100105.00
2023-03-18T17:43:48.342Z,100109.00
2023-03-18T17:46:17.056Z,100108.00
2023-03-18T17:48:45.807Z,100110.00
2023-03-18T17:51:17.239Z,100111.00
2023-03-18T17:53:46.390Z,100110.00
2023-03-18T17:56:16.905Z,100120.00
2023-03-18T17:58:49.624Z,100112.00
2023-03-18T18:01:22.292Z,100111.00
2023-03-18T18:03:50.541Z,100108.00
2023-03-18T18:06:21.159Z,100107.00
2023-03-18T18:08:49.980Z,100107.00
2023-03-18T18:11:24.083Z,100110.00
2023-03-18T18:13:54.975Z,100104.00
2023-03-18T18:16:26.666Z,100105.00
2023-03-18T18:18:54.609Z,100113.00
2023-03-18T18:21:24.770Z,100103.00
2023-03-18T18:23:52.659Z,100100.00
2023-03-18T18:26:23.588Z,100116.00
2023-03-18T18:28:52.360Z,100113.00
2023-03-18T18:31:21.565Z,100113.00
2023-03-18T18:33:50.328Z,100119.00
2023-03-18T18:36:19.022Z,100122.00
2023-03-18T18:38:46.833Z,100126.00
2023-03-18T18:41:14.764Z,100125.00
2023-03-18T18:43:42.793Z,100121.00
2023-03-18T18:46:15.206Z,100131.00
2023-03-18T18:48:46.643Z,100127.00
2023-03-18T18:51:18.812Z,100124.00
2023-03-18T18:53:47.696Z,100129.00
2023-03-18T18:56:21.114Z,100128.00
2023-03-18T18:58:52.825Z,100133.00
2023-03-18T19:01:20.672Z,100126.00
2023-03-18T19:03:48.647Z,100130.00
2023-03-18T19:06:26.836Z,100126.00
2023-03-18T19:08:57.568Z,100127.00
2023-03-18T19:11:26.400Z,100133.00
2023-03-18T19:13:58.741Z,100132.00
2023-03-18T19:16:33.279Z,100126.00
2023-03-18T19:19:01.402Z,100124.00
2023-03-18T19:21:29.374Z,100127.00
2023-03-18T19:23:58.408Z,100121.00
2023-03-18T19:26:26.396Z,100118.00
2023-03-18T19:28:59.588Z,100119.00
2023-03-18T19:31:32.465Z,100113.00
2023-03-18T19:34:02.344Z,100119.00
2023-03-18T19:36:32.339Z,100120.00
2023-03-18T19:39:01.580Z,100118.00
2023-03-18T19:41:29.814Z,100119.00
2023-03-18T19:44:04.491Z,100119.00
2023-03-18T19:46:39.996Z,100123.00
2023-03-18T19:49:18.383Z,100124.00
2023-03-18T19:51:47.272Z,100123.00
2023-03-18T19:54:32.482Z,100128.00
2023-03-18T19:57:20.509Z,100128.00
2023-03-18T19:59:49.829Z,100133.00
2023-03-18T20:02:28.937Z,100135.00
2023-03-18T20:04:59.047Z,100137.00
2023-03-18T20:07:31.813Z,100132.00
2023-03-18T20:10:00.109Z,100132.00
2023-03-18T20:12:57.407Z,100140.00
2023-03-18T20:15:32.772Z,100145.00
2023-03-18T20:18:03.383Z,100145.00
2023-03-18T20:20:32.621Z,100152.00
2023-03-18T20:23:24.286Z,100141.00
2023-03-18T20:25:54.088Z,100148.00
2023-03-18T20:28:23.965Z,100144.00
2023-03-18T20:30:53.431Z,100148.00
2023-03-18T20:33:23.013Z,100144.00
2023-03-18T20:35:53.406Z,100146.00
2023-03-18T20:38:30.643Z,100146.00
2023-03-18T20:40:59.327Z,100141.00
2023-03-18T20:43:28.616Z,100133.00
2023-03-18T20:45:58.412Z,100132.00
2023-03-18T20:48:28.238Z,100137.00
2023-03-18T20:50:56.833Z,100131.00
2023-03-18T20:53:27.612Z,100133.00
2023-03-18T20:55:58.439Z,100139.00
2023-03-18T20:58:28.171Z,100139.00
2023-03-18T21:00:56.587Z,100134.00
2023-03-18T21:03:25.919Z,100137.00
2023-03-18T21:05:58.030Z,100134.00
2023-03-18T21:08:26.960Z,100142.00
2023-03-18T21:10:56.203Z,100136.00
2023-03-18T21:13:40.667Z,100135.00
2023-03-18T21:16:14.732Z,100135.00
2023-03-18T21:18:45.653Z,100143.00
2023-03-18T21:21:39.668Z,100141.00
2023-03-18T21:24:27.780Z,100142.00
2023-03-18T21:27:04.776Z,100142.00
2023-03-18T21:29:34.059Z,100145.00
2023-03-18T21:32:02.893Z,100143.00
2023-03-18T21:34:31.489Z,100145.00
2023-03-18T21:36:59.260Z,100139.00
2023-03-18T21:39:27.555Z,100150.00
2023-03-18T21:41:55.487Z,100132.00
2023-03-18T21:44:23.191Z,100133.00
2023-03-18T21:46:51.704Z,100127.00
2023-03-18T21:49:19.805Z,100134.00
2023-03-18T21:51:47.931Z,100134.00
2023-03-18T21:54:19.249Z,100135.00
2023-03-18T21:56:47.373Z,100139.00
2023-03-18T21:59:15.657Z,100132.00
2023-03-18T22:01:43.815Z,100137.00
2023-03-18T22:04:12.712Z,100135.00
2023-03-18T22:06:40.691Z,100137.00
2023-03-18T22:09:09.022Z,100127.00
2023-03-18T22:11:36.938Z,100129.00
2023-03-18T22:14:04.907Z,100130.00
2023-03-18T22:16:32.868Z,100133.00
2023-03-18T22:19:00.634Z,100126.00
2023-03-18T22:21:29.326Z,100118.00
2023-03-18T22:23:58.383Z,100113.00
2023-03-18T22:26:29.278Z,100116.00
2023-03-18T22:28:57.030Z,100122.00
2023-03-18T22:31:26.906Z,100121.00
2023-03-18T22:33:55.550Z,100121.00
2023-03-18T22:36:25.700Z,100124.00
2023-03-18T22:38:53.834Z,100130.00
2023-03-18T22:41:30.452Z,100148.00
2023-03-18T22:44:00.535Z,100191.00
2023-03-18T22:46:28.840Z,100219.00
2023-03-18T22:48:59.315Z,100221.00
2023-03-18T22:51:34.112Z,100211.00
2023-03-18T22:54:02.291Z,100197.00
2023-03-18T22:56:32.381Z,100173.00
2023-03-18T22:59:03.295Z,100172.00
2023-03-18T23:01:32.373Z,100172.00
2023-03-18T23:04:00.859Z,100170.00
2023-03-18T23:06:28.864Z,100176.00
2023-03-18T23:08:56.881Z,100200.00
2023-03-18T23:11:24.972Z,100198.00
2023-03-18T23:13:54.071Z,100198.00
2023-03-18T23:16:23.989Z,100195.00
2023-03-18T23:18:52.332Z,100203.00
2023-03-18T23:21:24.286Z,100197.00
2023-03-18T23:23:52.873Z,100183.00
2023-03-18T23:26:21.182Z,100182.00
2023-03-18T23:28:49.457Z,100194.00
2023-03-18T23:31:18.323Z,100202.00
2023-03-18T23:33:47.469Z,100209.00
2023-03-18T23:36:18.811Z,100209.00
2023-03-18T23:38:47.024Z,100192.00
2023-03-18T23:41:18.007Z,100195.00
2023-03-18T23:43:47.781Z,100221.00
2023-03-18T23:46:15.885Z,100221.00
2023-03-18T23:48:45.271Z,100216.00
2023-03-18T23:51:13.389Z,100215.00
2023-03-18T23:53:41.691Z,100214.00
2023-03-18T23:56:12.089Z,100209.00
2023-03-18T23:58:40.234Z,100202.00
